Alden, Michigan
Current Conditions -  °F | °C
As of 11:16 AM on Thursday 29 Jan 2015 (Local Time) from KACB Reporting Station
Light Snow Light Snow  
Wind Chill: 27°   Ceiling: 800
Heat Index: 27°   Visibility: 1mi
Dew Point: 25°   Wind: 0mph
Humidity: 90%   Direction: NA
Pressure: 29.8"   Gusts: NA
Location:  44.88°N, 85.28°W
Report Text: KACB 291616Z AUTO 00000KT 1SM -SN BKN008 OVC017 M03/M04 A2980 RMK AO2 T10271041
Loading
Personal Weather Stations






























Interactive Weather Map New forecast layout! Learn more

10-Day Weather Forecast

Advertisements
Track Severe Weather on mobile